sensor_id;sensor_type;location;lat;lon;timestamp;P1;P2;P0
46839;PMS5003;70678;50.710;5.026;2023-06-22T00:00:05;0;0;
46839;PMS5003;70678;50.710;5.026;2023-06-22T00:02:33;5;5;
46839;PMS5003;70678;50.710;5.026;2023-06-22T00:05:01;5;5;
46839;PMS5003;70678;50.710;5.026;2023-06-22T00:07:30;4;4;
46839;PMS5003;70678;50.710;5.026;2023-06-22T00:10:00;4;4;
46839;PMS5003;70678;50.710;5.026;2023-06-22T00:12:29;4;4;
46839;PMS5003;70678;50.710;5.026;2023-06-22T00:14:57;2;2;
46839;PMS5003;70678;50.710;5.026;2023-06-22T00:17:24;6;6;
46839;PMS5003;70678;50.710;5.026;2023-06-22T00:19:51;6;6;
46839;PMS5003;70678;50.710;5.026;2023-06-22T00:22:20;5;5;
46839;PMS5003;70678;50.710;5.026;2023-06-22T00:24:49;4;4;
46839;PMS5003;70678;50.710;5.026;2023-06-22T00:27:18;8;8;
46839;PMS5003;70678;50.710;5.026;2023-06-22T00:29:47;4;4;
46839;PMS5003;70678;50.710;5.026;2023-06-22T00:32:16;5;5;
46839;PMS5003;70678;50.710;5.026;2023-06-22T00:34:44;4;4;
46839;PMS5003;70678;50.710;5.026;2023-06-22T00:37:13;4;4;
46839;PMS5003;70678;50.710;5.026;2023-06-22T00:39:42;4;4;
46839;PMS5003;70678;50.710;5.026;2023-06-22T00:42:09;2;2;
46839;PMS5003;70678;50.710;5.026;2023-06-22T00:44:37;4;4;
46839;PMS5003;70678;50.710;5.026;2023-06-22T00:47:05;3;3;
46839;PMS5003;70678;50.710;5.026;2023-06-22T00:49:34;9;9;
46839;PMS5003;70678;50.710;5.026;2023-06-22T00:52:03;5;5;
46839;PMS5003;70678;50.710;5.026;2023-06-22T00:54:31;6;6;
46839;PMS5003;70678;50.710;5.026;2023-06-22T00:56:59;4;4;
46839;PMS5003;70678;50.710;5.026;2023-06-22T00:59:28;2;2;
46839;PMS5003;70678;50.710;5.026;2023-06-22T01:01:57;6;6;
46839;PMS5003;70678;50.710;5.026;2023-06-22T01:04:33;3;3;
46839;PMS5003;70678;50.710;5.026;2023-06-22T01:07:02;5;5;
46839;PMS5003;70678;50.710;5.026;2023-06-22T01:09:37;4;4;
46839;PMS5003;70678;50.710;5.026;2023-06-22T01:12:16;3;3;
46839;PMS5003;70678;50.710;5.026;2023-06-22T01:14:47;7;7;
46839;PMS5003;70678;50.710;5.026;2023-06-22T01:17:20;4;4;
46839;PMS5003;70678;50.710;5.026;2023-06-22T01:19:49;6;6;
46839;PMS5003;70678;50.710;5.026;2023-06-22T01:22:18;2;2;
46839;PMS5003;70678;50.710;5.026;2023-06-22T01:24:55;3;3;
46839;PMS5003;70678;50.710;5.026;2023-06-22T01:27:31;5;5;
46839;PMS5003;70678;50.710;5.026;2023-06-22T01:30:03;5;5;
46839;PMS5003;70678;50.710;5.026;2023-06-22T01:32:32;5;5;
46839;PMS5003;70678;50.710;5.026;2023-06-22T01:35:04;3;3;
46839;PMS5003;70678;50.710;5.026;2023-06-22T01:37:34;5;5;
46839;PMS5003;70678;50.710;5.026;2023-06-22T01:40:05;3;3;
46839;PMS5003;70678;50.710;5.026;2023-06-22T01:42:34;3;3;
46839;PMS5003;70678;50.710;5.026;2023-06-22T01:45:03;4;4;
46839;PMS5003;70678;50.710;5.026;2023-06-22T01:47:32;6;6;
46839;PMS5003;70678;50.710;5.026;2023-06-22T01:50:00;4;4;
46839;PMS5003;70678;50.710;5.026;2023-06-22T01:52:28;5;5;
46839;PMS5003;70678;50.710;5.026;2023-06-22T01:54:58;3;3;
46839;PMS5003;70678;50.710;5.026;2023-06-22T01:57:27;4;4;
46839;PMS5003;70678;50.710;5.026;2023-06-22T01:59:58;2;2;
46839;PMS5003;70678;50.710;5.026;2023-06-22T02:02:30;6;6;
46839;PMS5003;70678;50.710;5.026;2023-06-22T02:05:02;5;5;
46839;PMS5003;70678;50.710;5.026;2023-06-22T02:07:33;4;4;
46839;PMS5003;70678;50.710;5.026;2023-06-22T02:10:03;5;5;
46839;PMS5003;70678;50.710;5.026;2023-06-22T02:12:35;4;4;
46839;PMS5003;70678;50.710;5.026;2023-06-22T02:15:06;5;5;
46839;PMS5003;70678;50.710;5.026;2023-06-22T02:17:35;8;8;
46839;PMS5003;70678;50.710;5.026;2023-06-22T02:20:05;6;6;
46839;PMS5003;70678;50.710;5.026;2023-06-22T02:22:34;4;4;
46839;PMS5003;70678;50.710;5.026;2023-06-22T02:25:03;5;5;
46839;PMS5003;70678;50.710;5.026;2023-06-22T02:27:31;9;9;
46839;PMS5003;70678;50.710;5.026;2023-06-22T02:29:58;5;5;
46839;PMS5003;70678;50.710;5.026;2023-06-22T02:32:27;5;5;
46839;PMS5003;70678;50.710;5.026;2023-06-22T02:34:56;6;6;
46839;PMS5003;70678;50.710;5.026;2023-06-22T02:37:26;6;6;
46839;PMS5003;70678;50.710;5.026;2023-06-22T02:39:53;5;5;
46839;PMS5003;70678;50.710;5.026;2023-06-22T02:42:21;4;4;
46839;PMS5003;70678;50.710;5.026;2023-06-22T02:44:50;5;5;
46839;PMS5003;70678;50.710;5.026;2023-06-22T02:47:19;3;3;
46839;PMS5003;70678;50.710;5.026;2023-06-22T02:49:49;3;3;
46839;PMS5003;70678;50.710;5.026;2023-06-22T02:52:19;3;3;
46839;PMS5003;70678;50.710;5.026;2023-06-22T02:54:46;5;5;
46839;PMS5003;70678;50.710;5.026;2023-06-22T02:57:14;3;3;
46839;PMS5003;70678;50.710;5.026;2023-06-22T02:59:41;7;7;
46839;PMS5003;70678;50.710;5.026;2023-06-22T03:02:09;3;3;
46839;PMS5003;70678;50.710;5.026;2023-06-22T03:04:39;6;6;
46839;PMS5003;70678;50.710;5.026;2023-06-22T03:07:09;0;0;
46839;PMS5003;70678;50.710;5.026;2023-06-22T03:09:39;4;4;
46839;PMS5003;70678;50.710;5.026;2023-06-22T03:12:08;5;5;
46839;PMS5003;70678;50.710;5.026;2023-06-22T03:14:37;3;3;
46839;PMS5003;70678;50.710;5.026;2023-06-22T03:17:07;7;7;
46839;PMS5003;70678;50.710;5.026;2023-06-22T03:19:36;5;5;
46839;PMS5003;70678;50.710;5.026;2023-06-22T03:22:04;6;6;
46839;PMS5003;70678;50.710;5.026;2023-06-22T03:24:32;6;6;
46839;PMS5003;70678;50.710;5.026;2023-06-22T03:27:00;5;5;
46839;PMS5003;70678;50.710;5.026;2023-06-22T03:29:27;5;5;
46839;PMS5003;70678;50.710;5.026;2023-06-22T03:31:55;2;2;
46839;PMS5003;70678;50.710;5.026;2023-06-22T03:34:24;7;7;
46839;PMS5003;70678;50.710;5.026;2023-06-22T03:36:53;4;4;
46839;PMS5003;70678;50.710;5.026;2023-06-22T03:39:21;2;2;
46839;PMS5003;70678;50.710;5.026;2023-06-22T03:41:51;6;6;
46839;PMS5003;70678;50.710;5.026;2023-06-22T03:44:19;6;6;
46839;PMS5003;70678;50.710;5.026;2023-06-22T03:46:46;2;2;
46839;PMS5003;70678;50.710;5.026;2023-06-22T03:49:13;4;4;
46839;PMS5003;70678;50.710;5.026;2023-06-22T03:51:41;4;4;
46839;PMS5003;70678;50.710;5.026;2023-06-22T03:54:09;6;6;
46839;PMS5003;70678;50.710;5.026;2023-06-22T03:56:38;3;3;
46839;PMS5003;70678;50.710;5.026;2023-06-22T03:59:07;5;5;
46839;PMS5003;70678;50.710;5.026;2023-06-22T04:01:36;6;6;
46839;PMS5003;70678;50.710;5.026;2023-06-22T04:04:05;3;3;
46839;PMS5003;70678;50.710;5.026;2023-06-22T04:06:33;5;5;
46839;PMS5003;70678;50.710;5.026;2023-06-22T04:09:01;4;4;
46839;PMS5003;70678;50.710;5.026;2023-06-22T04:11:29;10;10;
46839;PMS5003;70678;50.710;5.026;2023-06-22T04:13:57;5;5;
46839;PMS5003;70678;50.710;5.026;2023-06-22T04:16:24;5;5;
46839;PMS5003;70678;50.710;5.026;2023-06-22T04:18:52;6;6;
46839;PMS5003;70678;50.710;5.026;2023-06-22T04:21:20;7;7;
46839;PMS5003;70678;50.710;5.026;2023-06-22T04:23:48;3;3;
46839;PMS5003;70678;50.710;5.026;2023-06-22T04:26:16;6;6;
46839;PMS5003;70678;50.710;5.026;2023-06-22T04:28:45;5;5;
46839;PMS5003;70678;50.710;5.026;2023-06-22T04:31:15;3;3;
46839;PMS5003;70678;50.710;5.026;2023-06-22T04:33:43;4;4;
46839;PMS5003;70678;50.710;5.026;2023-06-22T04:36:10;5;5;
46839;PMS5003;70678;50.710;5.026;2023-06-22T04:38:37;3;3;
46839;PMS5003;70678;50.710;5.026;2023-06-22T04:41:07;1;1;
46839;PMS5003;70678;50.710;5.026;2023-06-22T04:43:37;3;3;
46839;PMS5003;70678;50.710;5.026;2023-06-22T04:46:06;7;7;
46839;PMS5003;70678;50.710;5.026;2023-06-22T04:48:35;5;5;
46839;PMS5003;70678;50.710;5.026;2023-06-22T04:51:03;4;4;
46839;PMS5003;70678;50.710;5.026;2023-06-22T04:53:32;4;4;
46839;PMS5003;70678;50.710;5.026;2023-06-22T04:55:59;5;5;
46839;PMS5003;70678;50.710;5.026;2023-06-22T04:58:28;5;5;
46839;PMS5003;70678;50.710;5.026;2023-06-22T05:00:56;4;4;
46839;PMS5003;70678;50.710;5.026;2023-06-22T05:03:25;5;5;
46839;PMS5003;70678;50.710;5.026;2023-06-22T05:05:54;8;8;
46839;PMS5003;70678;50.710;5.026;2023-06-22T05:08:23;6;6;
46839;PMS5003;70678;50.710;5.026;2023-06-22T05:10:51;5;5;
46839;PMS5003;70678;50.710;5.026;2023-06-22T05:13:19;5;5;
46839;PMS5003;70678;50.710;5.026;2023-06-22T05:15:47;4;4;
46839;PMS5003;70678;50.710;5.026;2023-06-22T05:18:15;4;4;
46839;PMS5003;70678;50.710;5.026;2023-06-22T05:20:42;5;5;
46839;PMS5003;70678;50.710;5.026;2023-06-22T05:23:10;5;5;
46839;PMS5003;70678;50.710;5.026;2023-06-22T05:25:37;5;5;
46839;PMS5003;70678;50.710;5.026;2023-06-22T05:28:05;6;6;
46839;PMS5003;70678;50.710;5.026;2023-06-22T05:30:32;5;5;
46839;PMS5003;70678;50.710;5.026;2023-06-22T05:33:03;8;8;
46839;PMS5003;70678;50.710;5.026;2023-06-22T05:35:32;5;5;
46839;PMS5003;70678;50.710;5.026;2023-06-22T05:38:01;4;4;
46839;PMS5003;70678;50.710;5.026;2023-06-22T05:40:31;5;5;
46839;PMS5003;70678;50.710;5.026;2023-06-22T05:42:58;4;4;
46839;PMS5003;70678;50.710;5.026;2023-06-22T05:45:27;7;7;
46839;PMS5003;70678;50.710;5.026;2023-06-22T05:47:55;2;2;
46839;PMS5003;70678;50.710;5.026;2023-06-22T05:50:22;4;4;
46839;PMS5003;70678;50.710;5.026;2023-06-22T05:52:49;5;5;
46839;PMS5003;70678;50.710;5.026;2023-06-22T05:55:16;4;4;
46839;PMS5003;70678;50.710;5.026;2023-06-22T05:57:44;3;3;
46839;PMS5003;70678;50.710;5.026;2023-06-22T06:00:12;3;3;
46839;PMS5003;70678;50.710;5.026;2023-06-22T06:02:41;3;3;
46839;PMS5003;70678;50.710;5.026;2023-06-22T06:05:09;5;5;
46839;PMS5003;70678;50.710;5.026;2023-06-22T06:07:38;4;4;
46839;PMS5003;70678;50.710;5.026;2023-06-22T06:10:08;6;6;
46839;PMS5003;70678;50.710;5.026;2023-06-22T06:12:37;4;4;
46839;PMS5003;70678;50.710;5.026;2023-06-22T06:15:05;3;3;
46839;PMS5003;70678;50.710;5.026;2023-06-22T06:17:34;3;3;
46839;PMS5003;70678;50.710;5.026;2023-06-22T06:20:01;6;6;
46839;PMS5003;70678;50.710;5.026;2023-06-22T06:22:29;5;5;
46839;PMS5003;70678;50.710;5.026;2023-06-22T06:24:57;6;6;
46839;PMS5003;70678;50.710;5.026;2023-06-22T06:27:24;3;3;
46839;PMS5003;70678;50.710;5.026;2023-06-22T06:29:52;4;4;
46839;PMS5003;70678;50.710;5.026;2023-06-22T06:32:20;5;5;
46839;PMS5003;70678;50.710;5.026;2023-06-22T06:34:50;8;8;
46839;PMS5003;70678;50.710;5.026;2023-06-22T06:37:19;4;4;
46839;PMS5003;70678;50.710;5.026;2023-06-22T06:39:47;4;4;
46839;PMS5003;70678;50.710;5.026;2023-06-22T06:42:14;7;5;
46839;PMS5003;70678;50.710;5.026;2023-06-22T06:44:42;2;2;
46839;PMS5003;70678;50.710;5.026;2023-06-22T06:47:12;3;3;
46839;PMS5003;70678;50.710;5.026;2023-06-22T06:49:41;6;6;
46839;PMS5003;70678;50.710;5.026;2023-06-22T06:52:08;6;6;
46839;PMS5003;70678;50.710;5.026;2023-06-22T06:54:38;7;7;
46839;PMS5003;70678;50.710;5.026;2023-06-22T06:57:07;6;6;
46839;PMS5003;70678;50.710;5.026;2023-06-22T06:59:37;5;5;
46839;PMS5003;70678;50.710;5.026;2023-06-22T07:02:05;4;4;
46839;PMS5003;70678;50.710;5.026;2023-06-22T07:04:35;2;2;
46839;PMS5003;70678;50.710;5.026;2023-06-22T07:07:04;6;6;
46839;PMS5003;70678;50.710;5.026;2023-06-22T07:09:32;5;5;
46839;PMS5003;70678;50.710;5.026;2023-06-22T07:12:00;4;4;
46839;PMS5003;70678;50.710;5.026;2023-06-22T07:14:30;4;4;
46839;PMS5003;70678;50.710;5.026;2023-06-22T07:17:00;2;2;
46839;PMS5003;70678;50.710;5.026;2023-06-22T07:19:29;3;3;
46839;PMS5003;70678;50.710;5.026;2023-06-22T07:21:59;5;5;
46839;PMS5003;70678;50.710;5.026;2023-06-22T07:24:27;3;3;
46839;PMS5003;70678;50.710;5.026;2023-06-22T07:26:56;6;6;
46839;PMS5003;70678;50.710;5.026;2023-06-22T07:29:23;7;7;
46839;PMS5003;70678;50.710;5.026;2023-06-22T07:31:51;6;6;
46839;PMS5003;70678;50.710;5.026;2023-06-22T07:34:19;6;6;
46839;PMS5003;70678;50.710;5.026;2023-06-22T07:36:47;4;4;
46839;PMS5003;70678;50.710;5.026;2023-06-22T07:39:14;6;6;
46839;PMS5003;70678;50.710;5.026;2023-06-22T07:41:43;0;0;
46839;PMS5003;70678;50.710;5.026;2023-06-22T07:44:13;6;6;
46839;PMS5003;70678;50.710;5.026;2023-06-22T07:46:43;7;7;
46839;PMS5003;70678;50.710;5.026;2023-06-22T07:49:10;6;6;
46839;PMS5003;70678;50.710;5.026;2023-06-22T07:51:38;6;6;
46839;PMS5003;70678;50.710;5.026;2023-06-22T07:54:08;5;5;
46839;PMS5003;70678;50.710;5.026;2023-06-22T07:56:37;5;5;
46839;PMS5003;70678;50.710;5.026;2023-06-22T07:59:06;2;2;
46839;PMS5003;70678;50.710;5.026;2023-06-22T08:01:34;7;7;
46839;PMS5003;70678;50.710;5.026;2023-06-22T08:04:02;8;8;
46839;PMS5003;70678;50.710;5.026;2023-06-22T08:06:31;7;7;
46839;PMS5003;70678;50.710;5.026;2023-06-22T08:08:58;7;7;
46839;PMS5003;70678;50.710;5.026;2023-06-22T08:11:26;8;8;
46839;PMS5003;70678;50.710;5.026;2023-06-22T08:13:56;9;9;
46839;PMS5003;70678;50.710;5.026;2023-06-22T08:16:24;6;6;
46839;PMS5003;70678;50.710;5.026;2023-06-22T08:18:53;7;7;
46839;PMS5003;70678;50.710;5.026;2023-06-22T08:21:21;8;8;
46839;PMS5003;70678;50.710;5.026;2023-06-22T08:23:51;8;8;
46839;PMS5003;70678;50.710;5.026;2023-06-22T08:26:19;8;8;
46839;PMS5003;70678;50.710;5.026;2023-06-22T08:28:47;7;7;
46839;PMS5003;70678;50.710;5.026;2023-06-22T08:31:15;6;6;
46839;PMS5003;70678;50.710;5.026;2023-06-22T08:33:44;8;8;
46839;PMS5003;70678;50.710;5.026;2023-06-22T08:36:13;8;8;
46839;PMS5003;70678;50.710;5.026;2023-06-22T08:38:42;6;6;
46839;PMS5003;70678;50.710;5.026;2023-06-22T08:41:11;5;5;
46839;PMS5003;70678;50.710;5.026;2023-06-22T08:43:41;9;9;
46839;PMS5003;70678;50.710;5.026;2023-06-22T08:46:11;5;5;
46839;PMS5003;70678;50.710;5.026;2023-06-22T08:48:38;7;7;
46839;PMS5003;70678;50.710;5.026;2023-06-22T08:51:07;7;7;
46839;PMS5003;70678;50.710;5.026;2023-06-22T08:53:34;5;5;
46839;PMS5003;70678;50.710;5.026;2023-06-22T08:56:02;7;7;
46839;PMS5003;70678;50.710;5.026;2023-06-22T08:58:29;7;7;
46839;PMS5003;70678;50.710;5.026;2023-06-22T09:00:58;5;5;
46839;PMS5003;70678;50.710;5.026;2023-06-22T09:03:26;6;6;
46839;PMS5003;70678;50.710;5.026;2023-06-22T09:05:54;6;6;
46839;PMS5003;70678;50.710;5.026;2023-06-22T09:08:22;11;11;
46839;PMS5003;70678;50.710;5.026;2023-06-22T09:10:49;8;8;
46839;PMS5003;70678;50.710;5.026;2023-06-22T09:13:17;10;10;
46839;PMS5003;70678;50.710;5.026;2023-06-22T09:15:45;9;9;
46839;PMS5003;70678;50.710;5.026;2023-06-22T09:18:13;7;7;
46839;PMS5003;70678;50.710;5.026;2023-06-22T09:20:43;6;6;
46839;PMS5003;70678;50.710;5.026;2023-06-22T09:23:11;9;9;
46839;PMS5003;70678;50.710;5.026;2023-06-22T09:25:39;8;8;
46839;PMS5003;70678;50.710;5.026;2023-06-22T09:28:07;12;12;
46839;PMS5003;70678;50.710;5.026;2023-06-22T09:30:34;8;8;
46839;PMS5003;70678;50.710;5.026;2023-06-22T09:33:03;8;8;
46839;PMS5003;70678;50.710;5.026;2023-06-22T09:35:30;8;8;
46839;PMS5003;70678;50.710;5.026;2023-06-22T09:37:59;9;9;
46839;PMS5003;70678;50.710;5.026;2023-06-22T09:40:27;15;15;
46839;PMS5003;70678;50.710;5.026;2023-06-22T09:42:55;8;8;
46839;PMS5003;70678;50.710;5.026;2023-06-22T09:45:22;8;8;
46839;PMS5003;70678;50.710;5.026;2023-06-22T09:47:49;10;10;
46839;PMS5003;70678;50.710;5.026;2023-06-22T09:50:17;8;8;
46839;PMS5003;70678;50.710;5.026;2023-06-22T09:52:45;8;8;
46839;PMS5003;70678;50.710;5.026;2023-06-22T09:55:12;8;8;
46839;PMS5003;70678;50.710;5.026;2023-06-22T09:57:40;11;11;
46839;PMS5003;70678;50.710;5.026;2023-06-22T10:00:08;6;6;
46839;PMS5003;70678;50.710;5.026;2023-06-22T10:02:37;11;11;
46839;PMS5003;70678;50.710;5.026;2023-06-22T10:05:04;8;8;
46839;PMS5003;70678;50.710;5.026;2023-06-22T10:07:34;7;7;
46839;PMS5003;70678;50.710;5.026;2023-06-22T10:10:02;9;9;
46839;PMS5003;70678;50.710;5.026;2023-06-22T10:12:30;12;12;
46839;PMS5003;70678;50.710;5.026;2023-06-22T10:14:59;5;5;
46839;PMS5003;70678;50.710;5.026;2023-06-22T10:17:27;6;6;
46839;PMS5003;70678;50.710;5.026;2023-06-22T10:19:55;11;11;
46839;PMS5003;70678;50.710;5.026;2023-06-22T10:22:24;7;7;
46839;PMS5003;70678;50.710;5.026;2023-06-22T10:24:53;11;11;
46839;PMS5003;70678;50.710;5.026;2023-06-22T10:27:22;9;9;
46839;PMS5003;70678;50.710;5.026;2023-06-22T10:29:49;8;8;
46839;PMS5003;70678;50.710;5.026;2023-06-22T10:32:17;7;7;
46839;PMS5003;70678;50.710;5.026;2023-06-22T10:34:48;8;8;
46839;PMS5003;70678;50.710;5.026;2023-06-22T10:37:16;10;10;
46839;PMS5003;70678;50.710;5.026;2023-06-22T10:39:44;9;9;
46839;PMS5003;70678;50.710;5.026;2023-06-22T10:42:13;7;7;
46839;PMS5003;70678;50.710;5.026;2023-06-22T10:44:42;13;13;
46839;PMS5003;70678;50.710;5.026;2023-06-22T10:47:10;13;13;
46839;PMS5003;70678;50.710;5.026;2023-06-22T10:49:39;11;11;
46839;PMS5003;70678;50.710;5.026;2023-06-22T10:52:07;7;7;
46839;PMS5003;70678;50.710;5.026;2023-06-22T10:54:35;13;13;
46839;PMS5003;70678;50.710;5.026;2023-06-22T10:57:03;8;8;
46839;PMS5003;70678;50.710;5.026;2023-06-22T10:59:31;11;11;
46839;PMS5003;70678;50.710;5.026;2023-06-22T11:01:59;10;10;
46839;PMS5003;70678;50.710;5.026;2023-06-22T11:04:27;10;10;
46839;PMS5003;70678;50.710;5.026;2023-06-22T11:06:55;9;9;
46839;PMS5003;70678;50.710;5.026;2023-06-22T11:09:22;11;11;
46839;PMS5003;70678;50.710;5.026;2023-06-22T11:11:51;10;10;
46839;PMS5003;70678;50.710;5.026;2023-06-22T11:14:19;13;13;
46839;PMS5003;70678;50.710;5.026;2023-06-22T11:16:47;10;10;
46839;PMS5003;70678;50.710;5.026;2023-06-22T11:19:16;9;9;
46839;PMS5003;70678;50.710;5.026;2023-06-22T11:21:43;9;9;
46839;PMS5003;70678;50.710;5.026;2023-06-22T11:24:11;11;11;
46839;PMS5003;70678;50.710;5.026;2023-06-22T11:26:39;12;12;
46839;PMS5003;70678;50.710;5.026;2023-06-22T11:29:07;11;11;
46839;PMS5003;70678;50.710;5.026;2023-06-22T11:31:34;9;9;
46839;PMS5003;70678;50.710;5.026;2023-06-22T11:34:02;11;11;
46839;PMS5003;70678;50.710;5.026;2023-06-22T11:36:30;11;11;
46839;PMS5003;70678;50.710;5.026;2023-06-22T11:38:59;7;7;
46839;PMS5003;70678;50.710;5.026;2023-06-22T11:41:29;7;7;
46839;PMS5003;70678;50.710;5.026;2023-06-22T11:43:57;9;9;
46839;PMS5003;70678;50.710;5.026;2023-06-22T11:46:26;11;11;
46839;PMS5003;70678;50.710;5.026;2023-06-22T11:48:55;2;2;
46839;PMS5003;70678;50.710;5.026;2023-06-22T11:51:24;9;9;
46839;PMS5003;70678;50.710;5.026;2023-06-22T11:53:52;9;9;
46839;PMS5003;70678;50.710;5.026;2023-06-22T11:56:20;16;16;
46839;PMS5003;70678;50.710;5.026;2023-06-22T11:58:47;10;10;
46839;PMS5003;70678;50.710;5.026;2023-06-22T12:01:15;8;8;
46839;PMS5003;70678;50.710;5.026;2023-06-22T12:03:43;10;10;
46839;PMS5003;70678;50.710;5.026;2023-06-22T12:06:11;12;12;
46839;PMS5003;70678;50.710;5.026;2023-06-22T12:08:40;7;7;
46839;PMS5003;70678;50.710;5.026;2023-06-22T12:11:10;8;8;
46839;PMS5003;70678;50.710;5.026;2023-06-22T12:13:38;9;9;
46839;PMS5003;70678;50.710;5.026;2023-06-22T12:16:06;19;19;
46839;PMS5003;70678;50.710;5.026;2023-06-22T12:18:34;8;8;
46839;PMS5003;70678;50.710;5.026;2023-06-22T12:21:01;12;12;
46839;PMS5003;70678;50.710;5.026;2023-06-22T12:23:28;10;10;
46839;PMS5003;70678;50.710;5.026;2023-06-22T12:25:56;7;7;
46839;PMS5003;70678;50.710;5.026;2023-06-22T12:28:23;13;13;
46839;PMS5003;70678;50.710;5.026;2023-06-22T12:30:51;11;11;
46839;PMS5003;70678;50.710;5.026;2023-06-22T12:33:20;7;7;
46839;PMS5003;70678;50.710;5.026;2023-06-22T12:35:48;8;8;
46839;PMS5003;70678;50.710;5.026;2023-06-22T12:38:15;13;13;
46839;PMS5003;70678;50.710;5.026;2023-06-22T12:40:43;12;12;
46839;PMS5003;70678;50.710;5.026;2023-06-22T12:43:11;11;11;
46839;PMS5003;70678;50.710;5.026;2023-06-22T12:45:38;11;11;
46839;PMS5003;70678;50.710;5.026;2023-06-22T12:48:07;8;8;
46839;PMS5003;70678;50.710;5.026;2023-06-22T12:50:35;11;11;
46839;PMS5003;70678;50.710;5.026;2023-06-22T12:53:02;11;11;
46839;PMS5003;70678;50.710;5.026;2023-06-22T12:55:30;12;12;
46839;PMS5003;70678;50.710;5.026;2023-06-22T12:57:57;13;13;
46839;PMS5003;70678;50.710;5.026;2023-06-22T13:00:26;10;10;
46839;PMS5003;70678;50.710;5.026;2023-06-22T13:02:53;12;12;
46839;PMS5003;70678;50.710;5.026;2023-06-22T13:05:21;11;11;
46839;PMS5003;70678;50.710;5.026;2023-06-22T13:07:49;15;15;
46839;PMS5003;70678;50.710;5.026;2023-06-22T13:10:17;15;15;
46839;PMS5003;70678;50.710;5.026;2023-06-22T13:12:44;10;10;
46839;PMS5003;70678;50.710;5.026;2023-06-22T13:15:14;17;17;
46839;PMS5003;70678;50.710;5.026;2023-06-22T13:17:43;10;10;
46839;PMS5003;70678;50.710;5.026;2023-06-22T13:20:11;13;13;
46839;PMS5003;70678;50.710;5.026;2023-06-22T13:22:38;9;9;
46839;PMS5003;70678;50.710;5.026;2023-06-22T13:25:06;12;12;
46839;PMS5003;70678;50.710;5.026;2023-06-22T13:27:34;13;13;
46839;PMS5003;70678;50.710;5.026;2023-06-22T13:30:04;15;15;
46839;PMS5003;70678;50.710;5.026;2023-06-22T13:32:32;12;12;
46839;PMS5003;70678;50.710;5.026;2023-06-22T13:35:00;8;8;
46839;PMS5003;70678;50.710;5.026;2023-06-22T13:37:28;13;13;
46839;PMS5003;70678;50.710;5.026;2023-06-22T13:39:56;15;15;
46839;PMS5003;70678;50.710;5.026;2023-06-22T13:42:23;12;12;
46839;PMS5003;70678;50.710;5.026;2023-06-22T13:44:51;12;12;
46839;PMS5003;70678;50.710;5.026;2023-06-22T13:47:19;11;11;
46839;PMS5003;70678;50.710;5.026;2023-06-22T13:49:46;12;12;
46839;PMS5003;70678;50.710;5.026;2023-06-22T13:52:14;11;11;
46839;PMS5003;70678;50.710;5.026;2023-06-22T13:54:41;12;12;
46839;PMS5003;70678;50.710;5.026;2023-06-22T13:57:08;11;11;
46839;PMS5003;70678;50.710;5.026;2023-06-22T13:59:36;11;11;
46839;PMS5003;70678;50.710;5.026;2023-06-22T14:02:04;9;9;
46839;PMS5003;70678;50.710;5.026;2023-06-22T14:04:34;13;13;
46839;PMS5003;70678;50.710;5.026;2023-06-22T14:07:03;14;14;
46839;PMS5003;70678;50.710;5.026;2023-06-22T14:09:30;15;15;
46839;PMS5003;70678;50.710;5.026;2023-06-22T14:12:02;8;8;
46839;PMS5003;70678;50.710;5.026;2023-06-22T14:14:32;4;4;
46839;PMS5003;70678;50.710;5.026;2023-06-22T14:17:00;13;13;
46839;PMS5003;70678;50.710;5.026;2023-06-22T14:19:28;11;11;
46839;PMS5003;70678;50.710;5.026;2023-06-22T14:21:56;8;8;
46839;PMS5003;70678;50.710;5.026;2023-06-22T14:24:23;10;10;
46839;PMS5003;70678;50.710;5.026;2023-06-22T14:26:51;11;11;
46839;PMS5003;70678;50.710;5.026;2023-06-22T14:29:18;11;11;
46839;PMS5003;70678;50.710;5.026;2023-06-22T14:31:46;8;8;
46839;PMS5003;70678;50.710;5.026;2023-06-22T14:34:15;14;14;
46839;PMS5003;70678;50.710;5.026;2023-06-22T14:36:42;13;13;
46839;PMS5003;70678;50.710;5.026;2023-06-22T14:39:10;10;10;
46839;PMS5003;70678;50.710;5.026;2023-06-22T14:41:38;12;12;
46839;PMS5003;70678;50.710;5.026;2023-06-22T14:44:06;7;7;
46839;PMS5003;70678;50.710;5.026;2023-06-22T14:46:34;8;8;
46839;PMS5003;70678;50.710;5.026;2023-06-22T14:49:02;8;8;
46839;PMS5003;70678;50.710;5.026;2023-06-22T14:51:30;10;10;
46839;PMS5003;70678;50.710;5.026;2023-06-22T14:53:58;8;8;
46839;PMS5003;70678;50.710;5.026;2023-06-22T14:56:26;10;10;
46839;PMS5003;70678;50.710;5.026;2023-06-22T14:58:55;12;12;
46839;PMS5003;70678;50.710;5.026;2023-06-22T15:01:25;8;8;
46839;PMS5003;70678;50.710;5.026;2023-06-22T15:03:52;9;9;
46839;PMS5003;70678;50.710;5.026;2023-06-22T15:06:20;14;14;
46839;PMS5003;70678;50.710;5.026;2023-06-22T15:08:48;15;15;
46839;PMS5003;70678;50.710;5.026;2023-06-22T15:11:16;11;11;
46839;PMS5003;70678;50.710;5.026;2023-06-22T15:13:44;12;12;
46839;PMS5003;70678;50.710;5.026;2023-06-22T15:16:11;11;11;
46839;PMS5003;70678;50.710;5.026;2023-06-22T15:18:40;8;8;
46839;PMS5003;70678;50.710;5.026;2023-06-22T15:21:08;10;10;
46839;PMS5003;70678;50.710;5.026;2023-06-22T15:23:37;11;11;
46839;PMS5003;70678;50.710;5.026;2023-06-22T15:26:05;14;14;
46839;PMS5003;70678;50.710;5.026;2023-06-22T15:28:33;11;11;
46839;PMS5003;70678;50.710;5.026;2023-06-22T15:31:00;7;7;
46839;PMS5003;70678;50.710;5.026;2023-06-22T15:33:28;8;8;
46839;PMS5003;70678;50.710;5.026;2023-06-22T15:35:55;9;9;
46839;PMS5003;70678;50.710;5.026;2023-06-22T15:38:23;8;8;
46839;PMS5003;70678;50.710;5.026;2023-06-22T15:40:51;9;9;
46839;PMS5003;70678;50.710;5.026;2023-06-22T15:43:19;9;9;
46839;PMS5003;70678;50.710;5.026;2023-06-22T15:45:47;9;9;
46839;PMS5003;70678;50.710;5.026;2023-06-22T15:48:15;10;10;
46839;PMS5003;70678;50.710;5.026;2023-06-22T15:50:42;8;8;
46839;PMS5003;70678;50.710;5.026;2023-06-22T15:53:10;10;10;
46839;PMS5003;70678;50.710;5.026;2023-06-22T15:55:38;9;9;
46839;PMS5003;70678;50.710;5.026;2023-06-22T15:58:07;12;12;
46839;PMS5003;70678;50.710;5.026;2023-06-22T16:00:34;11;11;
46839;PMS5003;70678;50.710;5.026;2023-06-22T16:03:02;10;10;
46839;PMS5003;70678;50.710;5.026;2023-06-22T16:05:30;10;10;
46839;PMS5003;70678;50.710;5.026;2023-06-22T16:07:58;7;7;
46839;PMS5003;70678;50.710;5.026;2023-06-22T16:10:25;9;9;
46839;PMS5003;70678;50.710;5.026;2023-06-22T16:12:53;11;11;
46839;PMS5003;70678;50.710;5.026;2023-06-22T16:15:21;11;11;
46839;PMS5003;70678;50.710;5.026;2023-06-22T16:17:49;9;9;
46839;PMS5003;70678;50.710;5.026;2023-06-22T16:20:17;8;8;
46839;PMS5003;70678;50.710;5.026;2023-06-22T16:22:45;9;9;
46839;PMS5003;70678;50.710;5.026;2023-06-22T16:25:13;6;6;
46839;PMS5003;70678;50.710;5.026;2023-06-22T16:27:41;7;7;
46839;PMS5003;70678;50.710;5.026;2023-06-22T16:30:09;11;11;
46839;PMS5003;70678;50.710;5.026;2023-06-22T16:32:36;9;9;
46839;PMS5003;70678;50.710;5.026;2023-06-22T16:35:04;13;12;
46839;PMS5003;70678;50.710;5.026;2023-06-22T16:37:33;4;4;
46839;PMS5003;70678;50.710;5.026;2023-06-22T16:40:01;10;10;
46839;PMS5003;70678;50.710;5.026;2023-06-22T16:42:29;6;6;
46839;PMS5003;70678;50.710;5.026;2023-06-22T16:44:57;8;8;
46839;PMS5003;70678;50.710;5.026;2023-06-22T16:47:25;9;9;
46839;PMS5003;70678;50.710;5.026;2023-06-22T16:49:52;11;9;